sensor_id;sensor_type;location;lat;lon;timestamp;pressure;altitude;pressure_sealevel;temperature;humidity
41140;BME280;26881;48.784;9.192;2022-12-05T00:02:04;98411.34;;;4.51;85.61
41140;BME280;26881;48.784;9.192;2022-12-05T00:07:27;98408.50;;;4.57;84.81
41140;BME280;26881;48.784;9.192;2022-12-05T00:12:49;98402.91;;;4.46;85.02
41140;BME280;26881;48.784;9.192;2022-12-05T00:18:10;98406.69;;;4.59;84.16
41140;BME280;26881;48.784;9.192;2022-12-05T00:23:32;98409.88;;;4.43;83.82
41140;BME280;26881;48.784;9.192;2022-12-05T00:28:55;98405.03;;;4.34;85.32
41140;BME280;26881;48.784;9.192;2022-12-05T00:34:17;98403.91;;;4.41;85.54
41140;BME280;26881;48.784;9.192;2022-12-05T00:39:38;98402.78;;;4.49;84.73
41140;BME280;26881;48.784;9.192;2022-12-05T00:45:00;98406.28;;;4.48;85.11
41140;BME280;26881;48.784;9.192;2022-12-05T00:50:22;98411.34;;;4.51;84.81
41140;BME280;26881;48.784;9.192;2022-12-05T00:55:44;98413.97;;;4.49;84.84
41140;BME280;26881;48.784;9.192;2022-12-05T01:01:08;98423.53;;;4.47;84.21
41140;BME280;26881;48.784;9.192;2022-12-05T01:06:30;98441.94;;;4.39;84.71
41140;BME280;26881;48.784;9.192;2022-12-05T01:11:52;98443.78;;;4.36;84.48
41140;BME280;26881;48.784;9.192;2022-12-05T01:17:14;98457.66;;;4.35;84.58
41140;BME280;26881;48.784;9.192;2022-12-05T01:22:36;98469.34;;;4.45;84.44
41140;BME280;26881;48.784;9.192;2022-12-05T01:27:57;98455.03;;;4.36;84.69
41140;BME280;26881;48.784;9.192;2022-12-05T01:33:19;98466.53;;;4.28;84.95
41140;BME280;26881;48.784;9.192;2022-12-05T01:38:41;98465.31;;;4.38;84.50
41140;BME280;26881;48.784;9.192;2022-12-05T01:44:05;98449.94;;;4.33;83.88
41140;BME280;26881;48.784;9.192;2022-12-05T01:49:32;98474.47;;;4.23;85.25
41140;BME280;26881;48.784;9.192;2022-12-05T01:55:01;98475.31;;;4.23;85.34
41140;BME280;26881;48.784;9.192;2022-12-05T02:00:23;98472.66;;;4.25;85.46
41140;BME280;26881;48.784;9.192;2022-12-05T02:05:48;98469.25;;;4.25;85.45
41140;BME280;26881;48.784;9.192;2022-12-05T02:11:11;98475.31;;;4.23;85.27
41140;BME280;26881;48.784;9.192;2022-12-05T02:33:47;98514.59;;;4.60;84.58
41140;BME280;26881;48.784;9.192;2022-12-05T02:39:35;98528.56;;;4.56;84.46
41140;BME280;26881;48.784;9.192;2022-12-05T02:45:03;98514.59;;;4.60;85.43
41140;BME280;26881;48.784;9.192;2022-12-05T02:50:32;98514.34;;;4.42;85.20
41140;BME280;26881;48.784;9.192;2022-12-05T02:55:55;98528.56;;;4.56;85.77
41140;BME280;26881;48.784;9.192;2022-12-05T03:01:19;98541.03;;;4.44;87.17
41140;BME280;26881;48.784;9.192;2022-12-05T03:06:46;98525.00;;;4.58;86.99
41140;BME280;26881;48.784;9.192;2022-12-05T03:12:22;98509.41;;;4.60;87.10
41140;BME280;26881;48.784;9.192;2022-12-05T03:17:59;98504.00;;;4.66;86.31
41140;BME280;26881;48.784;9.192;2022-12-05T03:23:37;98503.19;;;4.40;86.61
41140;BME280;26881;48.784;9.192;2022-12-05T03:40:27;98503.41;;;4.34;88.53
41140;BME280;26881;48.784;9.192;2022-12-05T03:45:55;98505.09;;;4.35;88.62
41140;BME280;26881;48.784;9.192;2022-12-05T03:51:22;98516.88;;;4.44;88.53
41140;BME280;26881;48.784;9.192;2022-12-05T03:56:50;98520.31;;;4.44;88.69
41140;BME280;26881;48.784;9.192;2022-12-05T04:02:21;98516.88;;;4.44;88.98
41140;BME280;26881;48.784;9.192;2022-12-05T04:07:48;98511.88;;;4.39;89.24
41140;BME280;26881;48.784;9.192;2022-12-05T04:13:12;98509.16;;;4.42;88.59
41140;BME280;26881;48.784;9.192;2022-12-05T04:18:43;98496.97;;;4.46;88.05
41140;BME280;26881;48.784;9.192;2022-12-05T04:24:13;98508.13;;;4.48;88.00
41140;BME280;26881;48.784;9.192;2022-12-05T04:30:11;98521.22;;;4.43;89.02
41140;BME280;26881;48.784;9.192;2022-12-05T04:35:41;98533.88;;;4.26;89.42
41140;BME280;26881;48.784;9.192;2022-12-05T04:41:06;98539.22;;;4.47;89.27
41140;BME280;26881;48.784;9.192;2022-12-05T04:46:32;98533.06;;;4.51;88.91
41140;BME280;26881;48.784;9.192;2022-12-05T04:51:59;98545.31;;;4.46;88.41
41140;BME280;26881;48.784;9.192;2022-12-05T04:57:26;98541.03;;;4.44;88.71
41140;BME280;26881;48.784;9.192;2022-12-05T05:03:18;98555.56;;;4.49;89.28
41140;BME280;26881;48.784;9.192;2022-12-05T05:08:55;98547.84;;;4.47;88.90
41140;BME280;26881;48.784;9.192;2022-12-05T05:14:18;98553.25;;;4.41;88.97
41140;BME280;26881;48.784;9.192;2022-12-05T05:19:39;98559.94;;;4.47;88.84
41140;BME280;26881;48.784;9.192;2022-12-05T05:25:01;98559.09;;;4.46;88.64
41140;BME280;26881;48.784;9.192;2022-12-05T05:30:24;98580.63;;;4.48;89.59
41140;BME280;26881;48.784;9.192;2022-12-05T05:35:46;98583.63;;;4.61;89.71
41140;BME280;26881;48.784;9.192;2022-12-05T05:41:12;98584.38;;;4.64;88.39
41140;BME280;26881;48.784;9.192;2022-12-05T05:46:35;98601.75;;;4.61;88.26
41140;BME280;26881;48.784;9.192;2022-12-05T05:51:57;98603.47;;;4.62;88.72
41140;BME280;26881;48.784;9.192;2022-12-05T05:57:19;98593.78;;;4.67;88.73
41140;BME280;26881;48.784;9.192;2022-12-05T06:02:41;98582.63;;;4.65;88.79
41140;BME280;26881;48.784;9.192;2022-12-05T06:08:03;98577.59;;;4.60;89.17
41140;BME280;26881;48.784;9.192;2022-12-05T06:13:25;98595.69;;;4.62;88.17
41140;BME280;26881;48.784;9.192;2022-12-05T06:18:47;98597.25;;;4.66;88.25
41140;BME280;26881;48.784;9.192;2022-12-05T06:24:10;98595.69;;;4.62;88.62
41140;BME280;26881;48.784;9.192;2022-12-05T06:29:33;98598.06;;;4.68;88.63
41140;BME280;26881;48.784;9.192;2022-12-05T06:34:55;98616.31;;;4.65;88.97
41140;BME280;26881;48.784;9.192;2022-12-05T06:40:16;98631.19;;;4.58;89.12
41140;BME280;26881;48.784;9.192;2022-12-05T06:45:38;98637.44;;;4.53;89.28
41140;BME280;26881;48.784;9.192;2022-12-05T06:51:00;98636.22;;;4.63;89.50
41140;BME280;26881;48.784;9.192;2022-12-05T06:56:22;98633.09;;;4.53;89.13
41140;BME280;26881;48.784;9.192;2022-12-05T07:01:43;98636.69;;;4.49;90.05
41140;BME280;26881;48.784;9.192;2022-12-05T07:07:07;98642.41;;;4.59;88.76
41140;BME280;26881;48.784;9.192;2022-12-05T07:12:31;98645.88;;;4.59;89.01
41140;BME280;26881;48.784;9.192;2022-12-05T07:17:53;98642.09;;;4.68;89.19
41140;BME280;26881;48.784;9.192;2022-12-05T07:23:15;98669.91;;;4.63;88.43
41140;BME280;26881;48.784;9.192;2022-12-05T07:28:36;98667.00;;;4.72;88.18
41140;BME280;26881;48.784;9.192;2022-12-05T07:33:58;98680.72;;;4.76;88.46
41140;BME280;26881;48.784;9.192;2022-12-05T07:39:20;98677.84;;;4.83;88.51
41140;BME280;26881;48.784;9.192;2022-12-05T07:44:42;98659.19;;;4.99;88.78
41140;BME280;26881;48.784;9.192;2022-12-05T07:50:04;98667.50;;;5.09;87.93
41140;BME280;26881;48.784;9.192;2022-12-05T07:55:26;98674.47;;;5.06;89.03
41140;BME280;26881;48.784;9.192;2022-12-05T08:00:48;98679.53;;;5.10;89.02
41140;BME280;26881;48.784;9.192;2022-12-05T08:06:16;98677.00;;;5.08;89.08
41140;BME280;26881;48.784;9.192;2022-12-05T08:11:38;98677.47;;;5.19;90.08
41140;BME280;26881;48.784;9.192;2022-12-05T08:16:59;98677.53;;;5.18;89.95
41140;BME280;26881;48.784;9.192;2022-12-05T08:22:21;98696.81;;;5.11;88.22
41140;BME280;26881;48.784;9.192;2022-12-05T08:27:43;98703.47;;;5.18;87.65
41140;BME280;26881;48.784;9.192;2022-12-05T08:33:05;98704.19;;;5.21;88.83
41140;BME280;26881;48.784;9.192;2022-12-05T08:38:27;98713.28;;;5.33;88.81
41140;BME280;26881;48.784;9.192;2022-12-05T08:43:48;98719.72;;;5.46;87.04
41140;BME280;26881;48.784;9.192;2022-12-05T08:49:10;98723.56;;;5.60;88.10
41140;BME280;26881;48.784;9.192;2022-12-05T08:54:32;98729.56;;;5.62;86.66
41140;BME280;26881;48.784;9.192;2022-12-05T08:59:54;98716.84;;;5.54;87.33
41140;BME280;26881;48.784;9.192;2022-12-05T09:05:16;98724.47;;;5.59;87.25
41140;BME280;26881;48.784;9.192;2022-12-05T09:10:49;98731.56;;;5.54;87.33
41140;BME280;26881;48.784;9.192;2022-12-05T09:16:13;98743.47;;;5.59;87.13
41140;BME280;26881;48.784;9.192;2022-12-05T09:21:35;98753.69;;;5.64;87.61
41140;BME280;26881;48.784;9.192;2022-12-05T09:26:57;98757.88;;;5.68;87.41
41140;BME280;26881;48.784;9.192;2022-12-05T09:32:19;98752.97;;;5.84;85.87
41140;BME280;26881;48.784;9.192;2022-12-05T09:37:41;98758.81;;;5.89;85.70
41140;BME280;26881;48.784;9.192;2022-12-05T09:43:05;98768.38;;;5.88;86.90
41140;BME280;26881;48.784;9.192;2022-12-05T09:48:28;98769.88;;;5.96;85.88
41140;BME280;26881;48.784;9.192;2022-12-05T09:53:49;98767.88;;;6.02;85.77
41140;BME280;26881;48.784;9.192;2022-12-05T09:59:13;98764.72;;;5.94;85.91
41140;BME280;26881;48.784;9.192;2022-12-05T10:15:59;98766.75;;;6.09;88.61
41140;BME280;26881;48.784;9.192;2022-12-05T10:21:31;98760.41;;;6.17;88.03
41140;BME280;26881;48.784;9.192;2022-12-05T10:26:58;98763.94;;;6.16;87.42
41140;BME280;26881;48.784;9.192;2022-12-05T10:32:24;98753.28;;;6.22;87.50
41140;BME280;26881;48.784;9.192;2022-12-05T10:37:52;98754.53;;;6.35;85.73
41140;BME280;26881;48.784;9.192;2022-12-05T10:43:23;98747.56;;;6.36;85.69
41140;BME280;26881;48.784;9.192;2022-12-05T10:48:46;98745.63;;;6.41;85.20
41140;BME280;26881;48.784;9.192;2022-12-05T10:54:20;98751.56;;;6.44;84.31
41140;BME280;26881;48.784;9.192;2022-12-05T10:59:45;98753.00;;;6.51;83.92
41140;BME280;26881;48.784;9.192;2022-12-05T11:05:08;98744.28;;;6.52;85.33
41140;BME280;26881;48.784;9.192;2022-12-05T11:10:35;98748.94;;;6.66;83.88
41140;BME280;26881;48.784;9.192;2022-12-05T11:15:58;98747.03;;;6.49;84.47
41140;BME280;26881;48.784;9.192;2022-12-05T11:21:21;98749.91;;;6.64;84.51
41140;BME280;26881;48.784;9.192;2022-12-05T11:26:42;98739.47;;;6.65;83.36
41140;BME280;26881;48.784;9.192;2022-12-05T11:32:20;98739.03;;;6.76;81.91
41140;BME280;26881;48.784;9.192;2022-12-05T11:38:01;98741.13;;;6.88;80.27
41140;BME280;26881;48.784;9.192;2022-12-05T12:00:29;98719.31;;;7.32;76.61
41140;BME280;26881;48.784;9.192;2022-12-05T12:06:24;98725.50;;;7.29;77.39
41140;BME280;26881;48.784;9.192;2022-12-05T12:17:56;98721.03;;;7.12;83.44
41140;BME280;26881;48.784;9.192;2022-12-05T12:41:03;98722.75;;;6.93;83.40
41140;BME280;26881;48.784;9.192;2022-12-05T12:52:10;98723.25;;;7.01;85.48
41140;BME280;26881;48.784;9.192;2022-12-05T13:03:08;98718.00;;;7.03;85.73
41140;BME280;26881;48.784;9.192;2022-12-05T13:08:43;98713.19;;;6.93;85.87
41140;BME280;26881;48.784;9.192;2022-12-05T13:14:12;98711.50;;;6.92;86.05
41140;BME280;26881;48.784;9.192;2022-12-05T13:19:41;98707.94;;;6.95;85.96
41140;BME280;26881;48.784;9.192;2022-12-05T13:25:04;98715.13;;;6.88;85.78
41140;BME280;26881;48.784;9.192;2022-12-05T13:30:26;98712.34;;;6.93;86.57
41140;BME280;26881;48.784;9.192;2022-12-05T13:35:49;98703.63;;;6.94;85.59
41140;BME280;26881;48.784;9.192;2022-12-05T13:41:41;98708.63;;;6.99;85.33
41140;BME280;26881;48.784;9.192;2022-12-05T13:53:33;98714.28;;;6.88;86.17
41140;BME280;26881;48.784;9.192;2022-12-05T13:58:58;98720.56;;;6.82;87.55
41140;BME280;26881;48.784;9.192;2022-12-05T14:04:43;98736.19;;;6.82;86.78
41140;BME280;26881;48.784;9.192;2022-12-05T14:10:07;98742.16;;;6.84;87.57
41140;BME280;26881;48.784;9.192;2022-12-05T14:15:37;98752.38;;;6.89;88.14
41140;BME280;26881;48.784;9.192;2022-12-05T14:21:08;98753.34;;;6.86;86.71
41140;BME280;26881;48.784;9.192;2022-12-05T14:26:48;98748.38;;;6.80;87.21
41140;BME280;26881;48.784;9.192;2022-12-05T14:32:36;98754.63;;;6.76;88.14
41140;BME280;26881;48.784;9.192;2022-12-05T14:38:06;98756.25;;;6.79;87.33
41140;BME280;26881;48.784;9.192;2022-12-05T14:43:39;98756.97;;;6.82;86.90
41140;BME280;26881;48.784;9.192;2022-12-05T14:49:32;98760.88;;;6.72;86.41
41140;BME280;26881;48.784;9.192;2022-12-05T14:55:02;98767.88;;;6.70;86.60
41140;BME280;26881;48.784;9.192;2022-12-05T15:00:26;98766.44;;;6.63;86.70
41140;BME280;26881;48.784;9.192;2022-12-05T15:05:48;98768.59;;;6.51;87.13
41140;BME280;26881;48.784;9.192;2022-12-05T15:11:15;98769.25;;;6.57;86.74
41140;BME280;26881;48.784;9.192;2022-12-05T15:16:51;98756.53;;;6.50;87.77
41140;BME280;26881;48.784;9.192;2022-12-05T15:22:15;98760.25;;;6.43;87.85
41140;BME280;26881;48.784;9.192;2022-12-05T15:27:40;98763.47;;;6.28;88.79
41140;BME280;26881;48.784;9.192;2022-12-05T15:33:03;98767.06;;;6.24;89.32
41140;BME280;26881;48.784;9.192;2022-12-05T15:38:28;98777.75;;;6.16;89.51
41140;BME280;26881;48.784;9.192;2022-12-05T15:43:56;98784.72;;;6.16;89.64
41140;BME280;26881;48.784;9.192;2022-12-05T15:49:26;98785.72;;;6.11;89.83
41140;BME280;26881;48.784;9.192;2022-12-05T15:54:49;98803.91;;;6.11;89.41
41140;BME280;26881;48.784;9.192;2022-12-05T16:00:17;98806.72;;;6.05;89.48
41140;BME280;26881;48.784;9.192;2022-12-05T16:05:47;98812.34;;;5.93;90.09
41140;BME280;26881;48.784;9.192;2022-12-05T16:11:12;98804.28;;;6.01;90.14
41140;BME280;26881;48.784;9.192;2022-12-05T16:16:36;98813.94;;;5.97;89.59
41140;BME280;26881;48.784;9.192;2022-12-05T16:27:24;98821.03;;;5.92;90.23
41140;BME280;26881;48.784;9.192;2022-12-05T16:32:47;98827.91;;;5.93;90.42
41140;BME280;26881;48.784;9.192;2022-12-05T16:49:31;98828.88;;;5.90;91.06
41140;BME280;26881;48.784;9.192;2022-12-05T16:54:53;98823.47;;;5.97;90.36
41140;BME280;26881;48.784;9.192;2022-12-05T17:00:15;98832.22;;;5.94;90.53
41140;BME280;26881;48.784;9.192;2022-12-05T17:05:37;98826.44;;;5.86;91.48
41140;BME280;26881;48.784;9.192;2022-12-05T17:10:59;98833.09;;;5.93;90.96
41140;BME280;26881;48.784;9.192;2022-12-05T17:16:24;98831.41;;;5.92;91.45
41140;BME280;26881;48.784;9.192;2022-12-05T17:21:47;98828.66;;;5.97;90.61
41140;BME280;26881;48.784;9.192;2022-12-05T17:27:10;98834.72;;;5.97;90.88
41140;BME280;26881;48.784;9.192;2022-12-05T17:32:32;98824.25;;;5.99;91.07
41140;BME280;26881;48.784;9.192;2022-12-05T17:37:54;98825.34;;;5.91;91.26
41140;BME280;26881;48.784;9.192;2022-12-05T17:43:16;98833.81;;;5.98;91.40
41140;BME280;26881;48.784;9.192;2022-12-05T17:48:46;98836.59;;;5.92;91.75
41140;BME280;26881;48.784;9.192;2022-12-05T17:54:08;98832.06;;;5.99;91.73
41140;BME280;26881;48.784;9.192;2022-12-05T17:59:30;98830.84;;;5.84;92.07
41140;BME280;26881;48.784;9.192;2022-12-05T18:04:52;98826.31;;;5.89;92.25
41140;BME280;26881;48.784;9.192;2022-12-05T18:10:17;98832.59;;;5.83;91.64
41140;BME280;26881;48.784;9.192;2022-12-05T18:15:40;98838.03;;;5.76;92.49
41140;BME280;26881;48.784;9.192;2022-12-05T18:21:06;98840.56;;;5.77;92.24
41140;BME280;26881;48.784;9.192;2022-12-05T18:26:28;98829.06;;;5.84;92.17
41140;BME280;26881;48.784;9.192;2022-12-05T18:31:49;98828.44;;;5.78;91.78
41140;BME280;26881;48.784;9.192;2022-12-05T18:37:11;98836.19;;;5.79;92.13
41140;BME280;26881;48.784;9.192;2022-12-05T18:42:33;98836.19;;;5.79;92.12
41140;BME280;26881;48.784;9.192;2022-12-05T18:47:55;98843.34;;;5.73;92.97
41140;BME280;26881;48.784;9.192;2022-12-05T18:53:30;98840.91;;;5.68;92.56
41140;BME280;26881;48.784;9.192;2022-12-05T19:04:21;98852.44;;;5.59;93.00
41140;BME280;26881;48.784;9.192;2022-12-05T19:09:42;98854.19;;;5.59;92.95
41140;BME280;26881;48.784;9.192;2022-12-05T19:15:05;98869.41;;;5.69;92.52
41140;BME280;26881;48.784;9.192;2022-12-05T19:20:27;98859.50;;;5.81;92.51
41140;BME280;26881;48.784;9.192;2022-12-05T19:25:53;98855.19;;;5.80;92.33
41140;BME280;26881;48.784;9.192;2022-12-05T19:31:17;98854.31;;;5.81;92.62
41140;BME280;26881;48.784;9.192;2022-12-05T19:36:44;98862.88;;;5.83;92.73
41140;BME280;26881;48.784;9.192;2022-12-05T19:42:05;98857.69;;;5.83;92.91
41140;BME280;26881;48.784;9.192;2022-12-05T19:47:27;98868.00;;;5.84;92.25
41140;BME280;26881;48.784;9.192;2022-12-05T19:52:49;98855.88;;;5.85;92.96
41140;BME280;26881;48.784;9.192;2022-12-05T19:58:11;98859.22;;;5.88;93.08
41140;BME280;26881;48.784;9.192;2022-12-05T20:03:32;98864.88;;;5.75;93.36
41140;BME280;26881;48.784;9.192;2022-12-05T20:08:54;98856.81;;;5.82;92.38
41140;BME280;26881;48.784;9.192;2022-12-05T20:14:17;98868.00;;;5.84;93.57
41140;BME280;26881;48.784;9.192;2022-12-05T20:19:39;98866.03;;;5.91;92.41
41140;BME280;26881;48.784;9.192;2022-12-05T20:25:01;98866.09;;;5.89;92.78
41140;BME280;26881;48.784;9.192;2022-12-05T20:30:23;98864.56;;;5.84;93.49
41140;BME280;26881;48.784;9.192;2022-12-05T20:35:45;98860.19;;;5.86;93.21
41140;BME280;26881;48.784;9.192;2022-12-05T20:41:09;98863.44;;;5.91;92.17
41140;BME280;26881;48.784;9.192;2022-12-05T20:46:35;98859.06;;;5.93;92.09
41140;BME280;26881;48.784;9.192;2022-12-05T20:51:57;98865.22;;;5.90;91.87
41140;BME280;26881;48.784;9.192;2022-12-05T20:57:19;98861.34;;;5.77;92.74
41140;BME280;26881;48.784;9.192;2022-12-05T21:02:41;98865.84;;;5.72;93.72
41140;BME280;26881;48.784;9.192;2022-12-05T21:08:03;98870.75;;;5.80;93.51
41140;BME280;26881;48.784;9.192;2022-12-05T21:13:25;98873.28;;;5.83;92.81
41140;BME280;26881;48.784;9.192;2022-12-05T21:18:48;98858.53;;;5.83;92.34
41140;BME280;26881;48.784;9.192;2022-12-05T21:24:10;98867.97;;;5.86;92.07
41140;BME280;26881;48.784;9.192;2022-12-05T21:29:32;98862.88;;;5.83;92.33
41140;BME280;26881;48.784;9.192;2022-12-05T21:34:55;98860.34;;;5.81;93.21
41140;BME280;26881;48.784;9.192;2022-12-05T21:40:18;98856.63;;;5.88;91.81
41140;BME280;26881;48.784;9.192;2022-12-05T21:45:39;98856.78;;;5.84;92.38
41140;BME280;26881;48.784;9.192;2022-12-05T21:51:07;98856.19;;;5.76;92.37
41140;BME280;26881;48.784;9.192;2022-12-05T21:56:29;98858.94;;;5.71;92.94
41140;BME280;26881;48.784;9.192;2022-12-05T22:01:51;98859.69;;;5.75;92.43
41140;BME280;26881;48.784;9.192;2022-12-05T22:07:12;98863.53;;;5.64;92.91
41140;BME280;26881;48.784;9.192;2022-12-05T22:12:34;98859.03;;;5.69;91.48
41140;BME280;26881;48.784;9.192;2022-12-05T22:17:56;98862.41;;;5.72;91.27
41140;BME280;26881;48.784;9.192;2022-12-05T22:23:18;98869.41;;;5.69;91.32
41140;BME280;26881;48.784;9.192;2022-12-05T22:28:40;98862.72;;;5.62;91.08
41140;BME280;26881;48.784;9.192;2022-12-05T22:34:01;98857.47;;;5.64;91.38
41140;BME280;26881;48.784;9.192;2022-12-05T22:39:23;98855.31;;;5.52;91.33
41140;BME280;26881;48.784;9.192;2022-12-05T22:44:45;98848.34;;;5.52;90.65
41140;BME280;26881;48.784;9.192;2022-12-05T22:50:07;98838.63;;;5.59;90.37
41140;BME280;26881;48.784;9.192;2022-12-05T22:55:30;98846.03;;;5.44;91.26
41140;BME280;26881;48.784;9.192;2022-12-05T23:00:51;98841.38;;;5.54;91.22
41140;BME280;26881;48.784;9.192;2022-12-05T23:06:16;98837.41;;;5.44;90.73
41140;BME280;26881;48.784;9.192;2022-12-05T23:11:38;98841.00;;;5.40;92.03
41140;BME280;26881;48.784;9.192;2022-12-05T23:17:00;98836.63;;;5.42;91.80
41140;BME280;26881;48.784;9.192;2022-12-05T23:22:22;98832.19;;;5.45;91.75
41140;BME280;26881;48.784;9.192;2022-12-05T23:27:44;98829.50;;;5.47;90.83
41140;BME280;26881;48.784;9.192;2022-12-05T23:33:05;98827.00;;;5.45;90.30
41140;BME280;26881;48.784;9.192;2022-12-05T23:38:27;98827.69;;;5.51;90.13
41140;BME280;26881;48.784;9.192;2022-12-05T23:43:50;98820.56;;;5.56;90.10
41140;BME280;26881;48.784;9.192;2022-12-05T23:49:12;98816.19;;;5.58;90.13
41140;BME280;26881;48.784;9.192;2022-12-05T23:54:34;98817.81;;;5.60;88.80
41140;BME280;26881;48.784;9.192;2022-12-05T23:59:56;98815.34;;;5.57;89.07
